sensor_id;sensor_type;location;lat;lon;timestamp;temperature;humidity
16825;DHT22;8529;48.108;-1.706;2023-05-01T00:02:11;14.10;99.90
16825;DHT22;8529;48.108;-1.706;2023-05-01T00:04:38;14.10;99.90
16825;DHT22;8529;48.108;-1.706;2023-05-01T00:07:06;14.10;99.90
16825;DHT22;8529;48.108;-1.706;2023-05-01T00:09:33;14.10;99.90
16825;DHT22;8529;48.108;-1.706;2023-05-01T00:12:00;14.10;99.90
16825;DHT22;8529;48.108;-1.706;2023-05-01T00:14:28;14.10;99.90
16825;DHT22;8529;48.108;-1.706;2023-05-01T00:16:55;14.10;99.90
16825;DHT22;8529;48.108;-1.706;2023-05-01T00:19:22;14.10;99.90
16825;DHT22;8529;48.108;-1.706;2023-05-01T00:21:49;14.10;99.90
16825;DHT22;8529;48.108;-1.706;2023-05-01T00:24:18;14.10;99.90
16825;DHT22;8529;48.108;-1.706;2023-05-01T00:26:46;14.10;99.90
16825;DHT22;8529;48.108;-1.706;2023-05-01T00:29:13;14.10;99.90
16825;DHT22;8529;48.108;-1.706;2023-05-01T00:31:39;14.10;99.90
16825;DHT22;8529;48.108;-1.706;2023-05-01T00:34:07;14.10;99.90
16825;DHT22;8529;48.108;-1.706;2023-05-01T00:36:34;14.00;99.90
16825;DHT22;8529;48.108;-1.706;2023-05-01T00:39:01;14.00;99.90
16825;DHT22;8529;48.108;-1.706;2023-05-01T00:41:29;14.00;99.90
16825;DHT22;8529;48.108;-1.706;2023-05-01T00:43:56;14.00;99.90
16825;DHT22;8529;48.108;-1.706;2023-05-01T00:46:23;14.00;99.90
16825;DHT22;8529;48.108;-1.706;2023-05-01T00:48:51;14.00;99.90
16825;DHT22;8529;48.108;-1.706;2023-05-01T00:51:19;14.00;99.90
16825;DHT22;8529;48.108;-1.706;2023-05-01T00:53:47;14.00;99.90
16825;DHT22;8529;48.108;-1.706;2023-05-01T00:56:14;14.00;99.90
16825;DHT22;8529;48.108;-1.706;2023-05-01T00:58:44;14.00;99.90
16825;DHT22;8529;48.108;-1.706;2023-05-01T01:01:12;14.00;99.90
16825;DHT22;8529;48.108;-1.706;2023-05-01T01:03:39;14.00;99.90
16825;DHT22;8529;48.108;-1.706;2023-05-01T01:06:11;14.00;99.90
16825;DHT22;8529;48.108;-1.706;2023-05-01T01:08:42;14.00;99.90
16825;DHT22;8529;48.108;-1.706;2023-05-01T01:11:17;14.00;99.90
16825;DHT22;8529;48.108;-1.706;2023-05-01T01:14:07;14.00;99.90
16825;DHT22;8529;48.108;-1.706;2023-05-01T01:16:47;14.00;99.90
16825;DHT22;8529;48.108;-1.706;2023-05-01T01:19:41;14.00;99.90
16825;DHT22;8529;48.108;-1.706;2023-05-01T01:22:19;14.00;99.90
16825;DHT22;8529;48.108;-1.706;2023-05-01T01:25:03;13.90;99.90
16825;DHT22;8529;48.108;-1.706;2023-05-01T01:27:47;13.90;99.90
16825;DHT22;8529;48.108;-1.706;2023-05-01T01:30:40;13.90;99.90
16825;DHT22;8529;48.108;-1.706;2023-05-01T01:33:42;13.90;99.90
16825;DHT22;8529;48.108;-1.706;2023-05-01T01:36:17;13.90;99.90
16825;DHT22;8529;48.108;-1.706;2023-05-01T01:38:45;13.90;99.90
16825;DHT22;8529;48.108;-1.706;2023-05-01T01:41:23;13.90;99.90
16825;DHT22;8529;48.108;-1.706;2023-05-01T01:44:00;13.90;99.90
16825;DHT22;8529;48.108;-1.706;2023-05-01T01:46:29;13.90;99.90
16825;DHT22;8529;48.108;-1.706;2023-05-01T01:49:01;13.90;99.90
16825;DHT22;8529;48.108;-1.706;2023-05-01T01:51:30;13.90;99.90
16825;DHT22;8529;48.108;-1.706;2023-05-01T01:53:58;13.90;99.90
16825;DHT22;8529;48.108;-1.706;2023-05-01T01:56:26;13.90;99.90
16825;DHT22;8529;48.108;-1.706;2023-05-01T01:58:55;13.90;99.90
16825;DHT22;8529;48.108;-1.706;2023-05-01T02:01:23;13.90;99.90
16825;DHT22;8529;48.108;-1.706;2023-05-01T02:03:52;13.90;99.90
16825;DHT22;8529;48.108;-1.706;2023-05-01T02:06:22;13.80;99.90
16825;DHT22;8529;48.108;-1.706;2023-05-01T02:08:50;13.80;99.90
16825;DHT22;8529;48.108;-1.706;2023-05-01T02:11:18;13.80;99.90
16825;DHT22;8529;48.108;-1.706;2023-05-01T02:13:47;13.80;99.90
16825;DHT22;8529;48.108;-1.706;2023-05-01T02:16:15;13.90;99.90
16825;DHT22;8529;48.108;-1.706;2023-05-01T02:18:43;13.90;99.90
16825;DHT22;8529;48.108;-1.706;2023-05-01T02:21:12;13.90;99.90
16825;DHT22;8529;48.108;-1.706;2023-05-01T02:23:42;13.90;99.90
16825;DHT22;8529;48.108;-1.706;2023-05-01T02:26:12;13.90;99.90
16825;DHT22;8529;48.108;-1.706;2023-05-01T02:28:41;13.90;99.90
16825;DHT22;8529;48.108;-1.706;2023-05-01T02:31:09;13.90;99.90
16825;DHT22;8529;48.108;-1.706;2023-05-01T02:33:36;13.90;99.90
16825;DHT22;8529;48.108;-1.706;2023-05-01T02:36:03;13.90;99.90
16825;DHT22;8529;48.108;-1.706;2023-05-01T02:38:30;13.90;99.90
16825;DHT22;8529;48.108;-1.706;2023-05-01T02:40:59;13.90;99.90
16825;DHT22;8529;48.108;-1.706;2023-05-01T02:43:27;13.90;99.90
16825;DHT22;8529;48.108;-1.706;2023-05-01T02:45:57;13.90;99.90
16825;DHT22;8529;48.108;-1.706;2023-05-01T02:48:26;13.90;99.90
16825;DHT22;8529;48.108;-1.706;2023-05-01T02:50:54;13.90;99.90
16825;DHT22;8529;48.108;-1.706;2023-05-01T02:53:22;13.80;99.90
16825;DHT22;8529;48.108;-1.706;2023-05-01T02:55:49;13.80;99.90
16825;DHT22;8529;48.108;-1.706;2023-05-01T02:58:18;13.80;99.90
16825;DHT22;8529;48.108;-1.706;2023-05-01T03:00:47;13.80;99.90
16825;DHT22;8529;48.108;-1.706;2023-05-01T03:03:15;13.80;99.90
16825;DHT22;8529;48.108;-1.706;2023-05-01T03:05:42;13.80;99.90
16825;DHT22;8529;48.108;-1.706;2023-05-01T03:08:08;13.80;99.90
16825;DHT22;8529;48.108;-1.706;2023-05-01T03:10:38;13.80;99.90
16825;DHT22;8529;48.108;-1.706;2023-05-01T03:13:05;13.80;99.90
16825;DHT22;8529;48.108;-1.706;2023-05-01T03:15:33;13.80;99.90
16825;DHT22;8529;48.108;-1.706;2023-05-01T03:18:00;13.80;99.90
16825;DHT22;8529;48.108;-1.706;2023-05-01T03:20:28;13.80;99.90
16825;DHT22;8529;48.108;-1.706;2023-05-01T03:22:56;13.80;99.90
16825;DHT22;8529;48.108;-1.706;2023-05-01T03:25:23;13.80;99.90
16825;DHT22;8529;48.108;-1.706;2023-05-01T03:27:50;13.80;99.90
16825;DHT22;8529;48.108;-1.706;2023-05-01T03:30:17;13.80;99.90
16825;DHT22;8529;48.108;-1.706;2023-05-01T03:32:46;13.80;99.90
16825;DHT22;8529;48.108;-1.706;2023-05-01T03:35:12;13.80;99.90
16825;DHT22;8529;48.108;-1.706;2023-05-01T03:37:39;13.80;99.90
16825;DHT22;8529;48.108;-1.706;2023-05-01T03:40:07;13.80;99.90
16825;DHT22;8529;48.108;-1.706;2023-05-01T03:42:34;13.80;99.90
16825;DHT22;8529;48.108;-1.706;2023-05-01T03:45:01;13.80;99.90
16825;DHT22;8529;48.108;-1.706;2023-05-01T03:47:28;13.80;99.90
16825;DHT22;8529;48.108;-1.706;2023-05-01T03:49:56;13.80;99.90
16825;DHT22;8529;48.108;-1.706;2023-05-01T03:52:23;13.80;99.90
16825;DHT22;8529;48.108;-1.706;2023-05-01T03:54:50;13.80;99.90
16825;DHT22;8529;48.108;-1.706;2023-05-01T03:57:17;13.70;99.90
16825;DHT22;8529;48.108;-1.706;2023-05-01T03:59:45;13.70;99.90
16825;DHT22;8529;48.108;-1.706;2023-05-01T04:02:12;13.80;99.90
16825;DHT22;8529;48.108;-1.706;2023-05-01T04:04:39;13.80;99.90
16825;DHT22;8529;48.108;-1.706;2023-05-01T04:07:07;13.70;99.90
16825;DHT22;8529;48.108;-1.706;2023-05-01T04:09:34;13.70;99.90
16825;DHT22;8529;48.108;-1.706;2023-05-01T04:12:01;13.70;99.90
16825;DHT22;8529;48.108;-1.706;2023-05-01T04:14:29;13.70;99.90
16825;DHT22;8529;48.108;-1.706;2023-05-01T04:16:57;13.60;99.90
16825;DHT22;8529;48.108;-1.706;2023-05-01T04:19:23;13.60;99.90
16825;DHT22;8529;48.108;-1.706;2023-05-01T04:21:50;13.60;99.90
16825;DHT22;8529;48.108;-1.706;2023-05-01T04:24:19;13.60;99.90
16825;DHT22;8529;48.108;-1.706;2023-05-01T04:26:45;13.60;99.90
16825;DHT22;8529;48.108;-1.706;2023-05-01T04:29:12;13.60;99.90
16825;DHT22;8529;48.108;-1.706;2023-05-01T04:31:39;13.60;99.90
16825;DHT22;8529;48.108;-1.706;2023-05-01T04:34:07;13.60;99.90
16825;DHT22;8529;48.108;-1.706;2023-05-01T04:36:34;13.60;99.90
16825;DHT22;8529;48.108;-1.706;2023-05-01T04:39:01;13.60;99.90
16825;DHT22;8529;48.108;-1.706;2023-05-01T04:41:30;13.60;99.90
16825;DHT22;8529;48.108;-1.706;2023-05-01T04:43:57;13.70;99.90
16825;DHT22;8529;48.108;-1.706;2023-05-01T04:46:24;13.70;99.90
16825;DHT22;8529;48.108;-1.706;2023-05-01T04:48:50;13.70;99.90
16825;DHT22;8529;48.108;-1.706;2023-05-01T04:51:17;13.60;99.90
16825;DHT22;8529;48.108;-1.706;2023-05-01T04:53:46;13.60;99.90
16825;DHT22;8529;48.108;-1.706;2023-05-01T04:56:12;13.60;99.90
16825;DHT22;8529;48.108;-1.706;2023-05-01T04:58:41;13.60;99.90
16825;DHT22;8529;48.108;-1.706;2023-05-01T05:01:08;13.60;99.90
16825;DHT22;8529;48.108;-1.706;2023-05-01T05:03:35;13.60;99.90
16825;DHT22;8529;48.108;-1.706;2023-05-01T05:06:02;13.60;99.90
16825;DHT22;8529;48.108;-1.706;2023-05-01T05:08:29;13.60;99.90
16825;DHT22;8529;48.108;-1.706;2023-05-01T05:10:56;13.60;99.90
16825;DHT22;8529;48.108;-1.706;2023-05-01T05:13:24;13.60;99.90
16825;DHT22;8529;48.108;-1.706;2023-05-01T05:15:53;13.60;99.90
16825;DHT22;8529;48.108;-1.706;2023-05-01T05:18:19;13.70;99.90
16825;DHT22;8529;48.108;-1.706;2023-05-01T05:20:46;13.60;99.90
16825;DHT22;8529;48.108;-1.706;2023-05-01T05:23:13;13.60;99.90
16825;DHT22;8529;48.108;-1.706;2023-05-01T05:25:40;13.60;99.90
16825;DHT22;8529;48.108;-1.706;2023-05-01T05:28:07;13.60;99.90
16825;DHT22;8529;48.108;-1.706;2023-05-01T05:30:34;13.60;99.90
16825;DHT22;8529;48.108;-1.706;2023-05-01T05:33:03;13.60;99.90
16825;DHT22;8529;48.108;-1.706;2023-05-01T05:35:30;13.60;99.90
16825;DHT22;8529;48.108;-1.706;2023-05-01T05:37:57;13.60;99.90
16825;DHT22;8529;48.108;-1.706;2023-05-01T05:40:24;13.60;99.90
16825;DHT22;8529;48.108;-1.706;2023-05-01T05:42:51;13.60;99.90
16825;DHT22;8529;48.108;-1.706;2023-05-01T05:45:18;13.60;99.90
16825;DHT22;8529;48.108;-1.706;2023-05-01T05:47:44;13.50;99.90
16825;DHT22;8529;48.108;-1.706;2023-05-01T05:50:13;13.50;99.90
16825;DHT22;8529;48.108;-1.706;2023-05-01T05:52:40;13.50;99.90
16825;DHT22;8529;48.108;-1.706;2023-05-01T05:55:07;13.50;99.90
16825;DHT22;8529;48.108;-1.706;2023-05-01T05:57:35;13.50;99.90
16825;DHT22;8529;48.108;-1.706;2023-05-01T06:00:02;13.50;99.90
16825;DHT22;8529;48.108;-1.706;2023-05-01T06:02:31;13.50;99.90
16825;DHT22;8529;48.108;-1.706;2023-05-01T06:04:58;13.50;99.90
16825;DHT22;8529;48.108;-1.706;2023-05-01T06:07:26;13.50;99.90
16825;DHT22;8529;48.108;-1.706;2023-05-01T06:09:53;13.50;99.90
16825;DHT22;8529;48.108;-1.706;2023-05-01T06:12:20;13.60;99.90
16825;DHT22;8529;48.108;-1.706;2023-05-01T06:14:47;13.60;99.90
16825;DHT22;8529;48.108;-1.706;2023-05-01T06:17:14;13.60;99.90
16825;DHT22;8529;48.108;-1.706;2023-05-01T06:19:41;13.60;99.90
16825;DHT22;8529;48.108;-1.706;2023-05-01T06:22:08;13.60;99.90
16825;DHT22;8529;48.108;-1.706;2023-05-01T06:24:36;13.60;99.90
16825;DHT22;8529;48.108;-1.706;2023-05-01T06:27:04;13.60;99.90
16825;DHT22;8529;48.108;-1.706;2023-05-01T06:29:31;13.60;99.90
16825;DHT22;8529;48.108;-1.706;2023-05-01T06:31:58;13.60;99.90
16825;DHT22;8529;48.108;-1.706;2023-05-01T06:34:25;13.60;99.90
16825;DHT22;8529;48.108;-1.706;2023-05-01T06:36:51;13.60;99.90
16825;DHT22;8529;48.108;-1.706;2023-05-01T06:39:18;13.60;99.90
16825;DHT22;8529;48.108;-1.706;2023-05-01T06:41:47;13.60;99.90
16825;DHT22;8529;48.108;-1.706;2023-05-01T06:44:14;13.60;99.90
16825;DHT22;8529;48.108;-1.706;2023-05-01T06:46:41;13.70;99.90
16825;DHT22;8529;48.108;-1.706;2023-05-01T06:49:08;13.70;99.90
16825;DHT22;8529;48.108;-1.706;2023-05-01T06:51:35;13.70;99.90
16825;DHT22;8529;48.108;-1.706;2023-05-01T06:54:02;13.80;99.90
16825;DHT22;8529;48.108;-1.706;2023-05-01T06:56:29;13.70;99.90
16825;DHT22;8529;48.108;-1.706;2023-05-01T06:58:58;13.80;99.90
16825;DHT22;8529;48.108;-1.706;2023-05-01T07:01:25;13.70;99.90
16825;DHT22;8529;48.108;-1.706;2023-05-01T07:03:52;13.80;99.90
16825;DHT22;8529;48.108;-1.706;2023-05-01T07:06:18;13.80;99.90
16825;DHT22;8529;48.108;-1.706;2023-05-01T07:08:45;13.80;99.90
16825;DHT22;8529;48.108;-1.706;2023-05-01T07:11:13;13.80;99.90
16825;DHT22;8529;48.108;-1.706;2023-05-01T07:13:40;13.80;99.90
16825;DHT22;8529;48.108;-1.706;2023-05-01T07:16:08;13.90;99.90
16825;DHT22;8529;48.108;-1.706;2023-05-01T07:18:36;13.90;99.90
16825;DHT22;8529;48.108;-1.706;2023-05-01T07:21:03;13.90;99.90
16825;DHT22;8529;48.108;-1.706;2023-05-01T07:23:30;13.90;99.90
16825;DHT22;8529;48.108;-1.706;2023-05-01T07:25:57;14.00;99.90
16825;DHT22;8529;48.108;-1.706;2023-05-01T07:28:24;14.00;99.90
16825;DHT22;8529;48.108;-1.706;2023-05-01T07:30:51;14.00;99.90
16825;DHT22;8529;48.108;-1.706;2023-05-01T07:33:19;14.00;99.90
16825;DHT22;8529;48.108;-1.706;2023-05-01T07:35:46;14.00;99.90
16825;DHT22;8529;48.108;-1.706;2023-05-01T07:38:14;14.00;99.90
16825;DHT22;8529;48.108;-1.706;2023-05-01T07:40:41;14.00;99.90
16825;DHT22;8529;48.108;-1.706;2023-05-01T07:43:08;14.00;99.90
16825;DHT22;8529;48.108;-1.706;2023-05-01T07:45:36;14.00;99.90
16825;DHT22;8529;48.108;-1.706;2023-05-01T07:48:03;14.00;99.90
16825;DHT22;8529;48.108;-1.706;2023-05-01T07:50:31;14.00;99.90
16825;DHT22;8529;48.108;-1.706;2023-05-01T07:52:58;14.10;99.90
16825;DHT22;8529;48.108;-1.706;2023-05-01T07:55:25;14.20;99.90
16825;DHT22;8529;48.108;-1.706;2023-05-01T07:57:52;14.20;99.90
16825;DHT22;8529;48.108;-1.706;2023-05-01T08:00:19;14.20;99.90
16825;DHT22;8529;48.108;-1.706;2023-05-01T08:02:46;14.20;99.90
16825;DHT22;8529;48.108;-1.706;2023-05-01T08:05:13;14.30;99.90
16825;DHT22;8529;48.108;-1.706;2023-05-01T08:07:41;14.30;99.90
16825;DHT22;8529;48.108;-1.706;2023-05-01T08:10:09;14.40;99.90
16825;DHT22;8529;48.108;-1.706;2023-05-01T08:12:36;14.40;99.90
16825;DHT22;8529;48.108;-1.706;2023-05-01T08:15:03;14.40;99.90
16825;DHT22;8529;48.108;-1.706;2023-05-01T08:17:30;14.40;99.90
16825;DHT22;8529;48.108;-1.706;2023-05-01T08:19:58;14.40;99.90
16825;DHT22;8529;48.108;-1.706;2023-05-01T08:22:25;14.40;99.90
16825;DHT22;8529;48.108;-1.706;2023-05-01T08:24:54;14.40;99.90
16825;DHT22;8529;48.108;-1.706;2023-05-01T08:27:21;14.40;99.90
16825;DHT22;8529;48.108;-1.706;2023-05-01T08:29:48;14.40;99.90
16825;DHT22;8529;48.108;-1.706;2023-05-01T08:32:17;14.30;99.90
16825;DHT22;8529;48.108;-1.706;2023-05-01T08:34:44;14.30;99.90
16825;DHT22;8529;48.108;-1.706;2023-05-01T08:37:11;14.20;99.90
16825;DHT22;8529;48.108;-1.706;2023-05-01T08:39:37;14.20;99.90
16825;DHT22;8529;48.108;-1.706;2023-05-01T08:42:06;14.10;99.90
16825;DHT22;8529;48.108;-1.706;2023-05-01T08:44:37;14.20;99.90
16825;DHT22;8529;48.108;-1.706;2023-05-01T08:47:10;14.20;99.90
16825;DHT22;8529;48.108;-1.706;2023-05-01T08:49:39;14.30;99.90
16825;DHT22;8529;48.108;-1.706;2023-05-01T08:52:08;14.30;99.90
16825;DHT22;8529;48.108;-1.706;2023-05-01T08:54:36;14.20;99.90
16825;DHT22;8529;48.108;-1.706;2023-05-01T08:57:08;14.20;99.90
16825;DHT22;8529;48.108;-1.706;2023-05-01T08:59:35;14.20;99.90
16825;DHT22;8529;48.108;-1.706;2023-05-01T09:02:05;14.20;99.90
16825;DHT22;8529;48.108;-1.706;2023-05-01T09:04:34;14.30;99.90
16825;DHT22;8529;48.108;-1.706;2023-05-01T09:07:02;14.30;99.90
16825;DHT22;8529;48.108;-1.706;2023-05-01T09:09:30;14.40;99.90
16825;DHT22;8529;48.108;-1.706;2023-05-01T09:12:00;14.40;99.90
16825;DHT22;8529;48.108;-1.706;2023-05-01T09:14:31;14.40;99.90
16825;DHT22;8529;48.108;-1.706;2023-05-01T09:16:58;14.40;99.90
16825;DHT22;8529;48.108;-1.706;2023-05-01T09:19:26;14.50;99.90
16825;DHT22;8529;48.108;-1.706;2023-05-01T09:21:53;14.60;99.90
16825;DHT22;8529;48.108;-1.706;2023-05-01T09:24:22;14.60;99.90
16825;DHT22;8529;48.108;-1.706;2023-05-01T09:26:50;14.70;99.90
16825;DHT22;8529;48.108;-1.706;2023-05-01T09:29:42;14.80;99.90
16825;DHT22;8529;48.108;-1.706;2023-05-01T09:32:14;14.80;99.90
16825;DHT22;8529;48.108;-1.706;2023-05-01T09:34:41;14.80;99.90
16825;DHT22;8529;48.108;-1.706;2023-05-01T09:37:11;14.80;99.90
16825;DHT22;8529;48.108;-1.706;2023-05-01T09:39:38;14.90;99.90
16825;DHT22;8529;48.108;-1.706;2023-05-01T09:42:06;14.90;99.90
16825;DHT22;8529;48.108;-1.706;2023-05-01T09:44:41;14.90;99.90
16825;DHT22;8529;48.108;-1.706;2023-05-01T09:47:09;14.90;99.90
16825;DHT22;8529;48.108;-1.706;2023-05-01T09:49:43;14.90;99.90
16825;DHT22;8529;48.108;-1.706;2023-05-01T09:52:11;15.00;99.90
16825;DHT22;8529;48.108;-1.706;2023-05-01T09:54:39;15.00;99.90
16825;DHT22;8529;48.108;-1.706;2023-05-01T09:57:06;15.10;99.90
16825;DHT22;8529;48.108;-1.706;2023-05-01T09:59:32;15.10;99.90
16825;DHT22;8529;48.108;-1.706;2023-05-01T10:02:01;15.10;99.90
16825;DHT22;8529;48.108;-1.706;2023-05-01T10:04:32;15.10;99.90
16825;DHT22;8529;48.108;-1.706;2023-05-01T10:07:10;15.10;99.90
16825;DHT22;8529;48.108;-1.706;2023-05-01T10:09:37;15.20;99.90
16825;DHT22;8529;48.108;-1.706;2023-05-01T10:12:05;15.30;99.90
16825;DHT22;8529;48.108;-1.706;2023-05-01T10:14:32;15.40;99.90
16825;DHT22;8529;48.108;-1.706;2023-05-01T10:17:16;15.60;99.90
16825;DHT22;8529;48.108;-1.706;2023-05-01T10:19:44;15.80;99.90
16825;DHT22;8529;48.108;-1.706;2023-05-01T10:22:11;15.80;99.90
16825;DHT22;8529;48.108;-1.706;2023-05-01T10:24:38;15.80;99.90
16825;DHT22;8529;48.108;-1.706;2023-05-01T10:27:06;15.80;99.90
16825;DHT22;8529;48.108;-1.706;2023-05-01T10:29:34;15.80;99.90
16825;DHT22;8529;48.108;-1.706;2023-05-01T10:32:02;15.70;99.90
16825;DHT22;8529;48.108;-1.706;2023-05-01T10:34:32;15.60;99.90
16825;DHT22;8529;48.108;-1.706;2023-05-01T10:37:04;15.40;99.90
16825;DHT22;8529;48.108;-1.706;2023-05-01T10:39:33;15.30;99.90
16825;DHT22;8529;48.108;-1.706;2023-05-01T10:42:04;15.30;99.90
16825;DHT22;8529;48.108;-1.706;2023-05-01T10:44:33;15.30;99.90
16825;DHT22;8529;48.108;-1.706;2023-05-01T10:47:44;15.50;99.90
16825;DHT22;8529;48.108;-1.706;2023-05-01T10:50:13;15.80;99.90
16825;DHT22;8529;48.108;-1.706;2023-05-01T10:53:15;16.10;99.90
16825;DHT22;8529;48.108;-1.706;2023-05-01T10:55:42;16.30;99.90
16825;DHT22;8529;48.108;-1.706;2023-05-01T10:58:10;16.30;99.90
16825;DHT22;8529;48.108;-1.706;2023-05-01T11:00:38;16.20;99.90
16825;DHT22;8529;48.108;-1.706;2023-05-01T11:03:37;16.20;99.90
16825;DHT22;8529;48.108;-1.706;2023-05-01T11:06:05;16.00;99.90
16825;DHT22;8529;48.108;-1.706;2023-05-01T11:08:33;15.90;99.90
16825;DHT22;8529;48.108;-1.706;2023-05-01T11:14:05;16.00;99.90
16825;DHT22;8529;48.108;-1.706;2023-05-01T11:16:42;16.10;99.90
16825;DHT22;8529;48.108;-1.706;2023-05-01T11:19:45;16.10;99.90
16825;DHT22;8529;48.108;-1.706;2023-05-01T11:22:15;16.20;99.90
16825;DHT22;8529;48.108;-1.706;2023-05-01T11:24:43;16.30;99.90
16825;DHT22;8529;48.108;-1.706;2023-05-01T11:27:13;16.50;99.90
16825;DHT22;8529;48.108;-1.706;2023-05-01T11:29:43;16.50;99.90
16825;DHT22;8529;48.108;-1.706;2023-05-01T11:32:17;16.60;99.90
16825;DHT22;8529;48.108;-1.706;2023-05-01T11:34:47;16.60;99.90
16825;DHT22;8529;48.108;-1.706;2023-05-01T11:37:15;16.70;99.90
16825;DHT22;8529;48.108;-1.706;2023-05-01T11:39:48;16.70;99.90
16825;DHT22;8529;48.108;-1.706;2023-05-01T11:42:15;16.70;99.90
16825;DHT22;8529;48.108;-1.706;2023-05-01T11:44:42;16.70;99.90
16825;DHT22;8529;48.108;-1.706;2023-05-01T11:47:09;16.70;99.90
16825;DHT22;8529;48.108;-1.706;2023-05-01T11:49:36;16.60;99.90
16825;DHT22;8529;48.108;-1.706;2023-05-01T11:52:04;16.50;99.90
16825;DHT22;8529;48.108;-1.706;2023-05-01T11:54:46;16.50;99.90
16825;DHT22;8529;48.108;-1.706;2023-05-01T11:57:13;16.70;99.90
16825;DHT22;8529;48.108;-1.706;2023-05-01T11:59:40;16.80;99.90
16825;DHT22;8529;48.108;-1.706;2023-05-01T12:02:18;16.80;99.90
16825;DHT22;8529;48.108;-1.706;2023-05-01T12:04:45;16.80;99.90
16825;DHT22;8529;48.108;-1.706;2023-05-01T12:07:20;16.90;99.90
16825;DHT22;8529;48.108;-1.706;2023-05-01T12:09:48;16.90;99.90
16825;DHT22;8529;48.108;-1.706;2023-05-01T12:12:15;17.00;99.90
16825;DHT22;8529;48.108;-1.706;2023-05-01T12:14:43;16.90;99.90
16825;DHT22;8529;48.108;-1.706;2023-05-01T12:17:10;16.90;99.90
16825;DHT22;8529;48.108;-1.706;2023-05-01T12:19:45;17.00;99.90
16825;DHT22;8529;48.108;-1.706;2023-05-01T12:22:14;17.00;99.90
16825;DHT22;8529;48.108;-1.706;2023-05-01T12:24:49;17.00;99.90
16825;DHT22;8529;48.108;-1.706;2023-05-01T12:27:17;16.90;99.90
16825;DHT22;8529;48.108;-1.706;2023-05-01T12:29:45;17.00;99.90
16825;DHT22;8529;48.108;-1.706;2023-05-01T12:32:13;17.10;99.90
16825;DHT22;8529;48.108;-1.706;2023-05-01T12:34:40;17.10;99.90
16825;DHT22;8529;48.108;-1.706;2023-05-01T12:37:08;17.10;99.90
16825;DHT22;8529;48.108;-1.706;2023-05-01T12:39:37;17.00;99.90
16825;DHT22;8529;48.108;-1.706;2023-05-01T12:42:10;16.90;99.90
16825;DHT22;8529;48.108;-1.706;2023-05-01T12:44:38;16.80;99.90
16825;DHT22;8529;48.108;-1.706;2023-05-01T12:47:06;16.80;99.90
16825;DHT22;8529;48.108;-1.706;2023-05-01T12:49:34;16.80;99.90
16825;DHT22;8529;48.108;-1.706;2023-05-01T12:52:03;16.80;99.90
16825;DHT22;8529;48.108;-1.706;2023-05-01T12:54:33;16.80;99.90
16825;DHT22;8529;48.108;-1.706;2023-05-01T12:57:07;16.80;99.90
16825;DHT22;8529;48.108;-1.706;2023-05-01T12:59:35;16.80;99.90
16825;DHT22;8529;48.108;-1.706;2023-05-01T13:02:03;16.70;99.90
16825;DHT22;8529;48.108;-1.706;2023-05-01T13:04:31;16.70;99.90
16825;DHT22;8529;48.108;-1.706;2023-05-01T13:06:58;16.80;99.90
16825;DHT22;8529;48.108;-1.706;2023-05-01T13:09:27;16.80;99.90
16825;DHT22;8529;48.108;-1.706;2023-05-01T13:11:57;16.90;99.90
16825;DHT22;8529;48.108;-1.706;2023-05-01T13:14:25;16.90;99.90
16825;DHT22;8529;48.108;-1.706;2023-05-01T13:16:53;17.00;99.90
16825;DHT22;8529;48.108;-1.706;2023-05-01T13:19:24;16.90;99.90
16825;DHT22;8529;48.108;-1.706;2023-05-01T13:21:53;16.90;99.90
16825;DHT22;8529;48.108;-1.706;2023-05-01T13:24:21;16.80;99.90
16825;DHT22;8529;48.108;-1.706;2023-05-01T13:26:55;16.70;99.90
16825;DHT22;8529;48.108;-1.706;2023-05-01T13:29:25;16.70;99.90
16825;DHT22;8529;48.108;-1.706;2023-05-01T13:31:52;16.70;99.90
16825;DHT22;8529;48.108;-1.706;2023-05-01T13:34:23;16.70;99.90
16825;DHT22;8529;48.108;-1.706;2023-05-01T13:36:50;16.80;99.90
16825;DHT22;8529;48.108;-1.706;2023-05-01T13:39:18;16.90;99.90
16825;DHT22;8529;48.108;-1.706;2023-05-01T13:41:45;16.90;99.90
16825;DHT22;8529;48.108;-1.706;2023-05-01T13:44:12;16.80;99.90
16825;DHT22;8529;48.108;-1.706;2023-05-01T13:46:42;16.80;99.90
16825;DHT22;8529;48.108;-1.706;2023-05-01T13:49:09;16.70;99.90
16825;DHT22;8529;48.108;-1.706;2023-05-01T13:51:39;16.80;99.90
16825;DHT22;8529;48.108;-1.706;2023-05-01T13:54:08;16.80;99.90
16825;DHT22;8529;48.108;-1.706;2023-05-01T13:56:37;16.80;99.90
16825;DHT22;8529;48.108;-1.706;2023-05-01T13:59:04;16.80;99.90
16825;DHT22;8529;48.108;-1.706;2023-05-01T14:01:39;16.80;99.90
16825;DHT22;8529;48.108;-1.706;2023-05-01T14:04:15;16.80;99.90
16825;DHT22;8529;48.108;-1.706;2023-05-01T14:06:43;16.70;99.90
16825;DHT22;8529;48.108;-1.706;2023-05-01T14:09:11;16.70;99.90
16825;DHT22;8529;48.108;-1.706;2023-05-01T14:11:43;16.80;99.90
16825;DHT22;8529;48.108;-1.706;2023-05-01T14:14:11;16.80;99.90
16825;DHT22;8529;48.108;-1.706;2023-05-01T14:16:40;16.90;99.90
16825;DHT22;8529;48.108;-1.706;2023-05-01T14:19:08;16.90;99.90
16825;DHT22;8529;48.108;-1.706;2023-05-01T14:21:39;16.90;99.90
16825;DHT22;8529;48.108;-1.706;2023-05-01T14:24:07;16.90;99.90
16825;DHT22;8529;48.108;-1.706;2023-05-01T14:26:36;16.90;99.90
16825;DHT22;8529;48.108;-1.706;2023-05-01T14:29:05;17.00;99.90
16825;DHT22;8529;48.108;-1.706;2023-05-01T14:31:33;17.00;99.90
16825;DHT22;8529;48.108;-1.706;2023-05-01T14:34:01;17.00;99.90
16825;DHT22;8529;48.108;-1.706;2023-05-01T14:36:29;17.10;99.90
16825;DHT22;8529;48.108;-1.706;2023-05-01T14:38:59;17.10;99.90
16825;DHT22;8529;48.108;-1.706;2023-05-01T14:41:27;17.10;99.90
16825;DHT22;8529;48.108;-1.706;2023-05-01T14:43:54;17.00;99.90
16825;DHT22;8529;48.108;-1.706;2023-05-01T14:46:27;16.90;99.90
16825;DHT22;8529;48.108;-1.706;2023-05-01T14:48:55;16.90;99.90
16825;DHT22;8529;48.108;-1.706;2023-05-01T14:51:21;16.90;99.90
16825;DHT22;8529;48.108;-1.706;2023-05-01T14:53:48;16.90;99.90
16825;DHT22;8529;48.108;-1.706;2023-05-01T14:56:17;16.90;99.90
16825;DHT22;8529;48.108;-1.706;2023-05-01T14:58:43;16.90;99.90
16825;DHT22;8529;48.108;-1.706;2023-05-01T15:01:12;16.90;99.90
16825;DHT22;8529;48.108;-1.706;2023-05-01T15:03:39;17.00;99.90
16825;DHT22;8529;48.108;-1.706;2023-05-01T15:06:07;17.00;99.90
16825;DHT22;8529;48.108;-1.706;2023-05-01T15:08:34;17.00;99.90
16825;DHT22;8529;48.108;-1.706;2023-05-01T15:11:01;17.00;99.90
16825;DHT22;8529;48.108;-1.706;2023-05-01T15:13:29;17.00;99.90
16825;DHT22;8529;48.108;-1.706;2023-05-01T15:15:57;16.90;99.90
16825;DHT22;8529;48.108;-1.706;2023-05-01T15:18:23;16.90;99.90
16825;DHT22;8529;48.108;-1.706;2023-05-01T15:20:50;16.80;99.90
16825;DHT22;8529;48.108;-1.706;2023-05-01T15:23:17;16.80;99.90
16825;DHT22;8529;48.108;-1.706;2023-05-01T15:25:44;16.80;99.90
16825;DHT22;8529;48.108;-1.706;2023-05-01T15:28:12;16.80;99.90
16825;DHT22;8529;48.108;-1.706;2023-05-01T15:30:44;16.80;99.90
16825;DHT22;8529;48.108;-1.706;2023-05-01T15:33:11;16.90;99.90
16825;DHT22;8529;48.108;-1.706;2023-05-01T15:35:38;16.90;99.90
16825;DHT22;8529;48.108;-1.706;2023-05-01T15:38:05;16.90;99.90
16825;DHT22;8529;48.108;-1.706;2023-05-01T15:40:32;16.90;99.90
16825;DHT22;8529;48.108;-1.706;2023-05-01T15:42:59;16.90;99.90
16825;DHT22;8529;48.108;-1.706;2023-05-01T15:45:26;16.90;99.90